Portada
METAR-TAF:

METAR-TAF

Aeropuertos :

Béziers, Francia

latitud: 43-19N, longitud: 003-21E, altitud: 17 m

Observación

El informe se hizo hace 28 minutos, a las 16:30 UTC
Viento 9 kt del sur, variando entre sureste y sur-suroeste
Temperatura 30°C
Humedad 31%
Presión 1015 hPa
Visibilidad 10 km o más
sin nubes por debajo de 1500 m y sin presencia de cumulonimbus.

METAR: LFMU 151630Z AUTO 17009KT 140V210 CAVOK 30/11 Q1015 NOSIG

Hora: 18:58 (16:58 UTC)

Pronóstico

El informe se hizo hace 2 horas y 58 minutos, a las 14:00 UTC
Pronóstico válido del 15 a las 15 UTC al 16 a las 15 UTC
Viento 2 kt con dirección variable
Visibilidad 10 km o más
sin nubes por debajo de 1500 m y sin presencia de cumulonimbus.
Temporalmente
del 15 a las 15 UTC al 15 a las 22 UTC
Viento 12 kt del sur
Evolucionando progresivamente
del 16 a las 08 UTC al 16 a las 11 UTC
Viento 12 kt del sur-sureste

TAF: LFMU 151400Z 1515/1615 VRB02KT CAVOK TEMPO 1515/1522 18012KT BECMG 1608/1611 16012KT

Observaciones y pronósticos meteorológicos de más de 4000 aeropuertos (mensajes METAR y TAF).

Los puntos amarillos y rojos representan las estaciones disponibles.

Ponga el ratón en el punto deseado para ver el nombre de la estación.

Haga clic para ver las observaciones y los pronósticos meteorológicos.

Para cambiar el mapa : haga clic en los botones verdes con una cruz de color negro para hacer un zoom, en el botón verde con un guión para alejar o en las flechas verdes para mapas adyacentes.


METAR-TAF: